Vitor Souza

Chefscout - Paysandu
2 Sep 2027
Donnerstag
Verarbeitung

Persönlichkeit

Anpassungsfähigkeit (17) Ehrgeiz (2) Kontroverse (17) Loyalität (14) Druck (6) Professionalität (1) Fairness (2) Temperament (18)

Profil

Trainerstil Demokratisch
Lizenz Kontinentale Pro
Entschlossenheit 10
Menschenführung 5
Motivation 11
Disziplin 5
Arbeitszufriedenheit
79%
Ermüdung
0%
Rolle Chefscout
Gehalt 37.7K p/W
Vertrag 14.03.2028

Leistung

Verhalten Gut
Trainingseffektivität
17%
Spielerentwicklung
50%
Verletzungsprävention
35%
Taktische Umsetzung
25%

Letzte Ereignisse

Nahm an einer Scouting-Besprechung teil jetzt
Empfahl ein Transferziel jetzt
Empfahl ein Transferziel jetzt
Nahm an einer Scouting-Besprechung teil 7T her
Empfahl ein Transferziel 7T her
Empfahl ein Transferziel 7T her
Empfahl ein Transferziel 7T her
Empfahl ein Transferziel 7T her

Aktuell beobachtet

99
Spieler Verein Status Fähigkeit Vertrauen Beobachtet Zuletzt beobachtet Letzte Stimme
João Lucas Bahia Aktiv 86 / 87 76% 1 14.06.2027 Befürworten
Orlando Neto São Paulo Aktiv 84 / 96 72% 1 06.12.2026 Befürworten
Alfonso Trezza Arouca Aktiv 118 / 114 40% 5 02.12.2026 -
Miguel Pires Vizela Aktiv 114 / 109 40% 1 02.12.2026 -
Miguel Baeza Nacional Aktiv 113 / 121 40% 1 02.12.2026 -
Andreas Trimmel Red Bull Salzburg Aktiv 131 / 131 60% 1 01.12.2026 Befürworten
Amar Memić Casa Pia Verhandlung 127 / 128 62% 1 01.12.2026 Befürworten
André Silva Tondela Aktiv 126 / 136 40% 4 30.11.2026 -
Pau Víctor AVS Aktiv 147 / 147 40% 6 24.11.2026 -
Chuchu Ramírez Nacional Aktiv 141 / 141 40% 5 24.11.2026 -
Dawda Camara Alverca Aktiv 123 / 130 40% 2 22.11.2026 -
Richard Koné Queens Park Rangers Aktiv 127 / 113 40% 3 22.11.2026 -
Joe Gelhardt Hull City Aktiv 130 / 137 40% 1 22.11.2026 -
Jalen Blesa Rio Ave Aktiv 115 / 118 40% 3 18.11.2026 -
Petar Musa Adana Demirspor Aktiv 142 / 146 40% 1 17.11.2026 -
Oscar Gloukh Ajax Aktiv 136 / 136 40% 2 15.11.2026 -
André Clovis Leiria Aktiv 119 / 114 40% 3 14.11.2026 -
Yousef Salech Cardiff City Aktiv 116 / 115 40% 1 14.11.2026 -
Myron Boadu Twente Aktiv 120 / 121 40% 1 12.11.2026 -
Ianis Stoica Estrela da Amadora Aktiv 113 / 120 40% 4 11.11.2026 -
Adnan Courtois KV Oostende Aktiv 141 / 138 40% 1 11.11.2026 -
Roméo Beney Famalicao Aktiv 114 / 125 40% 4 09.11.2026 -
Romelu Castagne KV Oostende Aktiv 134 / 136 40% 2 09.11.2026 -
Vinícius Lopes Santa Clara Aktiv 120 / 116 40% 3 04.11.2026 -
Yanis Begraoui Estoril Praia Aktiv 123 / 143 40% 2 30.10.2026 -
Agustín Módica Gimnasia y Esgrima Aktiv 116 / 127 40% 1 30.10.2026 -
Zé Leite Leixões Aktiv 107 / 121 40% 5 29.10.2026 -
Ferreirinha Sport Recife Aktiv 123 / 124 40% 3 28.10.2026 -
Patson Daka Leicester City Aktiv 119 / 130 40% 1 25.10.2026 -
Negueba Mirassol Aktiv 131 / 114 40% 3 23.10.2026 -
Sead Hakšabanović Malmo FF Aktiv 118 / 118 40% 2 21.10.2026 -
Luka Kurtovic NK Domzale Aktiv 137 / 117 40% 1 21.10.2026 -
Manuel Ospina Cortulua Aktiv 119 / 119 40% 1 20.10.2026 -
Mourad Tijuana Aktiv 121 / 125 40% 2 18.10.2026 -
Andre Green AVS Aktiv 105 / 112 40% 2 17.10.2026 -
Cameron Archer Southampton Aktiv 119 / 119 40% 1 15.10.2026 -
Jair Silva Leiria Aktiv 100 / 110 40% 3 14.10.2026 -
Breel Embolo Atlanta United FC Aktiv 145 / 130 40% 3 12.10.2026 -
Zian Flemming Ipswich Town Aktiv 128 / 140 40% 1 12.10.2026 -
Rodrigo Bogarín Barracas Central Aktiv 116 / 115 40% 1 10.10.2026 -
Juninho Pumas UNAM Aktiv 131 / 133 40% 3 08.10.2026 -
Figueiredo Alverca Aktiv 128 / 137 40% 2 06.10.2026 -
Leonardo Campana New England Revolution Aktiv 129 / 134 40% 2 05.10.2026 -
Tommy Conway Middlesbrough Aktiv 133 / 128 40% 1 05.10.2026 -
Renato Kayser Vitória Aktiv 120 / 121 40% 1 04.10.2026 -
Alejandro Melo Cibalia Aktiv 107 / 102 40% 1 04.10.2026 -
Martín Tejón Maritimo Aktiv 115 / 114 40% 1 04.10.2026 -
Santiago Rodríguez Gimnasia y Esgrima Aktiv 117 / 114 40% 1 03.10.2026 -
Pablo Fernández Leiria Aktiv 107 / 101 40% 1 03.10.2026 -
Juan Muñoz Leiria Aktiv 128 / 119 40% 3 02.10.2026 -
Gabriel Jesus Barcelona Aktiv 160 / 143 40% 3 01.10.2026 -
Misael Sosa Godoy Cruz Aktiv 120 / 118 40% 1 01.10.2026 -
Kévin Denkey FC Cincinnati Aktiv 137 / 131 40% 3 28.09.2026 -
Héctor Hernández Gil Vicente Aktiv 123 / 135 40% 1 25.09.2026 -
Lucas Duarte Felgueiras Aktiv 109 / 108 40% 1 25.09.2026 -
Alonso Martínez New York City Aktiv 120 / 119 40% 1 20.09.2026 -
Edwar López Deportes Tolima Aktiv 118 / 123 40% 1 20.09.2026 -
Dylan Nandín Arouca Aktiv 121 / 119 40% 1 19.09.2026 -
Marcus Ingvartsen San Diego Football Club Aktiv 134 / 131 40% 1 16.09.2026 -
Rafael Navarro St. Louis CITY SC Aktiv 125 / 123 40% 1 16.09.2026 -
Mohammed Bouldini Académico de Viseu Aktiv 113 / 118 40% 2 15.09.2026 -
Martín Ojeda Orlando City Aktiv 135 / 127 40% 1 12.09.2026 -
Fally Mayulu Arouca Aktiv 105 / 108 40% 1 12.09.2026 -
Bénie Traoré New York City Aktiv 117 / 137 40% 2 11.09.2026 -
Lukas Nmecha Leeds United Aktiv 119 / 126 40% 1 11.09.2026 -
Henrique Araújo Casa Pia Aktiv 128 / 109 40% 2 10.09.2026 -
Ross Stewart Southampton Aktiv 130 / 136 40% 1 10.09.2026 -
Kévin Zohi Torreense Aktiv 116 / 109 40% 2 09.09.2026 -
João Klauss LA Galaxy Aktiv 113 / 118 40% 2 07.09.2026 -
Dany Jean Torreense Aktiv 104 / 112 40% 1 04.09.2026 -
Jesus Ferreira Seattle Sounders Aktiv 121 / 140 40% 1 31.08.2026 -
Fotis Ioannidis Rio Ave Aktiv 133 / 129 40% 1 31.08.2026 -
Mika Lusitânia Lourosa Aktiv 102 / 116 40% 1 31.08.2026 -
Oli McBurnie Hull City Aktiv 124 / 145 40% 1 29.08.2026 -
Agustín Anello Philadelphia Union Aktiv 124 / 116 40% 1 29.08.2026 -
Myrto Uzuni Austin FC Aktiv 124 / 144 40% 1 29.08.2026 -
Josh Sargent Toronto FC Aktiv 131 / 128 40% 1 26.08.2026 -
Maximiliano Rodríguez Huachipato Aktiv 113 / 108 40% 1 26.08.2026 -
Bryan Limbombe Maritimo Aktiv 112 / 96 40% 1 25.08.2026 -
Alexandre Duville-Parsemain Moreirense Aktiv 112 / 118 40% 1 24.08.2026 -
Angel Bastunov Vizela Aktiv 110 / 110 40% 1 24.08.2026 -
Wessam Abou Ali Columbus Crew Aktiv 134 / 135 40% 1 22.08.2026 -
André Lacximicant Estoril Praia Aktiv 99 / 100 40% 1 22.08.2026 -
Timo Werner San Jose Earthquakes Aktiv 128 / 137 40% 1 17.08.2026 -
Gabriel Taliari Juventude Aktiv 124 / 121 40% 1 15.08.2026 -
Pablo Ruan Nacional Aktiv 104 / 115 40% 1 14.08.2026 -
Santiago Ramos Mingo Bahia Aktiv 136 / 127 40% 1 07.08.2026 -
Jordan Holsgrove Estoril Praia Aktiv 141 / 139 40% 1 07.08.2026 -
Rodrigo Pinheiro Famalicao Aktiv 128 / 130 40% 1 06.08.2026 -
Sabit Abdulai Alverca Aktiv 111 / 126 40% 1 06.08.2026 -
Diogo Travassos Braga Aktiv 135 / 118 40% 1 06.08.2026 -
Adriel Torreense Aktiv 103 / 104 40% 1 06.08.2026 -
Rodrigo Morínigo Libertad Aktiv 120 / 111 40% 1 06.08.2026 -
Jakob Tånnander Farense Aktiv 113 / 102 40% 1 05.08.2026 -
Antonio Gomis Vizela Aktiv 113 / 107 40% 1 04.08.2026 -
Juan Soriano Académico de Viseu Aktiv 111 / 117 40% 1 04.08.2026 -
Mauro Silveira Junior Aktiv 109 / 123 40% 1 02.08.2026 -
Nicolás Campisi Sportivo Luqueno Aktiv 124 / 128 40% 1 02.08.2026 -
Jon Karrikaburu Burgos Aktiv 130 / 117 40% 1 01.08.2026 -